Terminal Aerodrome Forecast
Issued by NWS

Home | Current Version | Previous Version | Text Only | Print | Product List | Glossary On
Versions: 1 2 3 4 5 6 7 8 9 10 11 12 13 14 15 16 17
000
FTUS42 KJAX 201700
TAFCRG
TAF
KCRG 201720Z 2018/2118 12008KT P6SM BKN035
     FM210000 13004KT P6SM SCT030 BKN250
     FM210600 00000KT P6SM SCT250
      TEMPO 2110/2112 4SM BR
     FM211500 31006KT P6SM FEW250=

USA.gov is the U.S. government's official web portal to all federal, state and local government web resources and services.